Alum Ridge, Virginia
Current Conditions -  °F | °C
As of 5:15 PM on Tuesday 21 Oct 2014 (Local Time) from KBCB Reporting Station
Overcast Overcast  
Wind Chill: 54°   Ceiling: 8000
Heat Index: 54°   Visibility: 10mi
Dew Point: 45°   Wind: 16mph
Humidity: 72%   Direction: 310°NW
Pressure: 29.95"   Gusts: 21mph
Location:  36.9207°N, 80.3192°W
Report Text: KBCB 212115Z AUTO 31014G18KT 10SM SCT039 OVC080 12/07 A2995 RMK AO2
Loading
Personal Weather Stations






























Interactive Weather Map New forecast layout! Learn more

10-Day Weather Forecast

Advertisements
Track Severe Weather on mobile